createdAt,value
2022-12-12T00:04:00.198Z,100.00
2022-12-12T00:06:31.101Z,100.00
2022-12-12T00:10:03.649Z,100.00
2022-12-12T00:16:45.498Z,100.00
2022-12-12T00:20:05.443Z,100.00
2022-12-12T00:22:49.375Z,100.00
2022-12-12T00:25:38.746Z,100.00
2022-12-12T00:28:06.513Z,100.00
2022-12-12T00:31:15.556Z,100.00
2022-12-12T00:33:50.286Z,100.00
2022-12-12T00:36:52.997Z,100.00
2022-12-12T00:42:22.922Z,100.00
2022-12-12T00:44:49.666Z,100.00
2022-12-12T00:47:18.627Z,100.00
2022-12-12T00:50:09.645Z,100.00
2022-12-12T00:52:37.491Z,100.00
2022-12-12T00:55:05.561Z,100.00
2022-12-12T00:57:35.945Z,100.00
2022-12-12T01:00:06.439Z,100.00
2022-12-12T01:02:34.543Z,100.00
2022-12-12T01:05:03.190Z,100.00
2022-12-12T01:07:30.158Z,100.00
2022-12-12T01:09:57.088Z,100.00
2022-12-12T01:12:23.920Z,100.00
2022-12-12T01:15:20.280Z,100.00
2022-12-12T01:19:27.838Z,100.00
2022-12-12T01:21:54.545Z,100.00
2022-12-12T01:24:21.558Z,100.00
2022-12-12T01:26:48.469Z,100.00
2022-12-12T01:29:32.576Z,100.00
2022-12-12T01:32:09.249Z,100.00
2022-12-12T01:38:50.317Z,100.00
2022-12-12T01:41:55.677Z,100.00
2022-12-12T01:45:15.072Z,100.00
2022-12-12T01:47:51.019Z,100.00
2022-12-12T01:50:18.282Z,100.00
2022-12-12T01:53:14.988Z,100.00
2022-12-12T01:55:43.288Z,100.00
2022-12-12T02:11:47.293Z,100.00
2022-12-12T02:12:33.636Z,100.00
2022-12-12T02:15:04.188Z,100.00
2022-12-12T02:18:21.121Z,100.00
2022-12-12T02:21:52.770Z,100.00
2022-12-12T02:25:25.842Z,100.00
2022-12-12T02:35:41.983Z,100.00
2022-12-12T02:38:50.476Z,100.00
2022-12-12T02:42:16.694Z,100.00
2022-12-12T02:48:49.140Z,100.00
2022-12-12T02:51:57.310Z,100.00
2022-12-12T02:58:32.469Z,100.00
2022-12-12T03:02:01.510Z,100.00
2022-12-12T04:11:59.221Z,100.00
2022-12-12T04:22:49.533Z,100.00
2022-12-12T04:25:32.891Z,100.00
2022-12-12T04:28:05.725Z,100.00
2022-12-12T04:30:35.233Z,100.00
2022-12-12T04:33:13.099Z,100.00
2022-12-12T04:35:45.504Z,100.00
2022-12-12T04:38:42.620Z,100.00
2022-12-12T04:41:11.989Z,100.00
2022-12-12T04:43:43.459Z,100.00
2022-12-12T04:46:18.156Z,100.00
2022-12-12T04:48:55.358Z,100.00
2022-12-12T04:51:33.769Z,100.00
2022-12-12T04:54:29.420Z,100.00
2022-12-12T04:57:00.943Z,100.00
2022-12-12T04:59:28.974Z,100.00
2022-12-12T05:02:02.597Z,100.00
2022-12-12T05:04:32.350Z,100.00
2022-12-12T05:07:10.903Z,100.00
2022-12-12T05:09:38.495Z,100.00
2022-12-12T05:12:05.623Z,100.00
2022-12-12T05:14:33.018Z,100.00
2022-12-12T05:17:07.857Z,100.00
2022-12-12T05:23:57.688Z,100.00
2022-12-12T05:26:29.283Z,100.00
2022-12-12T05:30:12.848Z,100.00
2022-12-12T05:43:40.080Z,100.00
2022-12-12T05:46:56.468Z,100.00
2022-12-12T05:49:50.269Z,100.00
2022-12-12T05:52:22.810Z,100.00
2022-12-12T05:55:04.089Z,100.00
2022-12-12T05:57:30.763Z,100.00
2022-12-12T06:00:25.492Z,100.00
2022-12-12T06:02:54.781Z,100.00
2022-12-12T06:06:04.095Z,100.00
2022-12-12T06:08:35.061Z,100.00
2022-12-12T06:23:16.494Z,100.00
2022-12-12T06:26:04.524Z,100.00
2022-12-12T06:28:34.642Z,100.00
2022-12-12T06:31:04.511Z,100.00
2022-12-12T06:33:36.525Z,100.00
2022-12-12T06:36:09.292Z,100.00
2022-12-12T06:38:36.333Z,100.00
2022-12-12T06:41:12.610Z,100.00
2022-12-12T06:44:37.247Z,100.00
2022-12-12T06:47:03.910Z,100.00
2022-12-12T06:49:30.436Z,100.00
2022-12-12T07:31:16.523Z,100.00
2022-12-12T07:42:03.808Z,100.00
2022-12-12T07:48:45.328Z,100.00
2022-12-12T07:58:49.262Z,100.00
2022-12-12T08:02:56.309Z,100.00
2022-12-12T08:05:39.713Z,100.00
2022-12-12T08:35:58.194Z,100.00
2022-12-12T08:50:32.797Z,100.00
2022-12-12T08:54:04.537Z,100.00
2022-12-12T09:00:53.147Z,100.00
2022-12-12T09:03:23.535Z,100.00
2022-12-12T09:05:54.116Z,100.00
2022-12-12T09:08:20.625Z,100.00
2022-12-12T09:10:50.133Z,100.00
2022-12-12T09:13:17.109Z,100.00
2022-12-12T09:15:43.694Z,100.00
2022-12-12T09:18:10.167Z,96.65
2022-12-12T09:20:36.660Z,92.19
2022-12-12T09:23:03.238Z,81.87
2022-12-12T09:25:29.734Z,75.67
2022-12-12T09:27:56.584Z,75.92
2022-12-12T09:30:23.283Z,69.81
2022-12-12T09:32:49.856Z,65.04
2022-12-12T09:35:16.651Z,57.56
2022-12-12T09:37:43.183Z,56.56
2022-12-12T09:40:18.010Z,54.89
2022-12-12T09:42:51.389Z,52.56
2022-12-12T09:45:19.616Z,53.43
2022-12-12T09:47:49.543Z,50.20
2022-12-12T09:50:26.382Z,48.56
2022-12-12T09:52:56.662Z,50.14
2022-12-12T09:55:26.831Z,48.05
2022-12-12T09:58:02.578Z,48.47
2022-12-12T10:00:35.350Z,47.56
2022-12-12T10:03:19.232Z,47.28
2022-12-12T10:09:28.581Z,46.77
2022-12-12T10:11:56.733Z,46.36
2022-12-12T10:14:43.745Z,43.92
2022-12-12T10:17:37.697Z,44.13
2022-12-12T10:20:24.069Z,45.13
2022-12-12T10:23:07.134Z,47.89
2022-12-12T10:25:51.219Z,46.98
2022-12-12T10:28:19.947Z,47.04
2022-12-12T10:31:02.215Z,47.44
2022-12-12T10:33:47.838Z,51.96
2022-12-12T10:36:26.368Z,56.62
2022-12-12T10:39:14.611Z,58.03
2022-12-12T10:41:48.812Z,55.62
2022-12-12T10:44:15.281Z,54.31
2022-12-12T10:46:58.043Z,54.07
2022-12-12T10:49:25.015Z,53.48
2022-12-12T10:51:52.516Z,54.49
2022-12-12T10:54:26.199Z,56.38
2022-12-12T10:57:07.781Z,58.57
2022-12-12T10:59:49.548Z,63.74
2022-12-12T11:02:38.266Z,63.64
2022-12-12T11:05:28.026Z,67.49
2022-12-12T11:08:04.605Z,68.96
2022-12-12T11:10:36.816Z,71.25
2022-12-12T11:13:09.404Z,70.65
2022-12-12T11:15:44.160Z,71.97
2022-12-12T11:18:16.121Z,73.30
2022-12-12T11:21:07.910Z,74.11
2022-12-12T11:23:36.500Z,74.89
2022-12-12T11:26:11.074Z,76.22
2022-12-12T11:28:38.806Z,75.95
2022-12-12T11:31:09.061Z,74.00
2022-12-12T11:33:44.808Z,69.65
2022-12-12T11:36:16.905Z,68.98
2022-12-12T11:38:50.559Z,64.69
2022-12-12T11:41:17.730Z,63.06
2022-12-12T11:43:44.174Z,60.58
2022-12-12T11:46:13.506Z,60.27
2022-12-12T11:48:47.368Z,62.52
2022-12-12T11:51:29.826Z,61.16
2022-12-12T11:53:56.389Z,63.87
2022-12-12T11:56:49.120Z,67.28
2022-12-12T11:59:35.412Z,66.72
2022-12-12T12:02:27.230Z,67.45
2022-12-12T12:05:12.028Z,65.53
2022-12-12T12:08:27.201Z,64.40
2022-12-12T12:11:27.932Z,63.32
2022-12-12T12:14:05.543Z,58.54
2022-12-12T12:16:59.772Z,58.95
2022-12-12T12:19:47.375Z,59.70
2022-12-12T12:22:25.941Z,59.57
2022-12-12T12:25:05.555Z,60.63
2022-12-12T12:27:43.003Z,61.82
2022-12-12T12:30:25.572Z,60.02
2022-12-12T12:33:18.631Z,60.30
2022-12-12T12:35:48.111Z,59.81
2022-12-12T12:38:21.898Z,60.39
2022-12-12T12:41:17.163Z,58.76
2022-12-12T12:44:17.613Z,61.52
2022-12-12T12:46:49.267Z,64.60
2022-12-12T12:49:23.477Z,65.91
2022-12-12T12:51:59.136Z,70.71
2022-12-12T12:54:33.884Z,73.99
2022-12-12T12:57:20.748Z,76.73
2022-12-12T12:59:51.803Z,76.18
2022-12-12T13:02:42.862Z,76.13
2022-12-12T13:05:14.942Z,78.19
2022-12-12T13:08:17.667Z,100.00
2022-12-12T13:10:50.486Z,98.10
2022-12-12T13:13:44.981Z,87.25
2022-12-12T13:16:15.630Z,90.70
2022-12-12T13:18:46.187Z,96.33
2022-12-12T13:22:00.665Z,100.00
2022-12-12T13:24:43.139Z,100.00
2022-12-12T13:27:17.342Z,100.00
2022-12-12T13:29:50.735Z,100.00
2022-12-12T13:32:45.079Z,100.00
2022-12-12T13:35:17.117Z,100.00
2022-12-12T13:37:54.891Z,100.00
2022-12-12T13:40:26.937Z,100.00
2022-12-12T13:42:57.352Z,100.00
2022-12-12T13:45:40.474Z,100.00
2022-12-12T13:48:31.017Z,100.00
2022-12-12T13:51:53.445Z,100.00
2022-12-12T13:54:19.905Z,100.00
2022-12-12T13:56:58.389Z,100.00
2022-12-12T13:59:27.721Z,100.00
2022-12-12T14:02:00.042Z,100.00
2022-12-12T14:04:31.665Z,100.00
2022-12-12T14:07:12.241Z,100.00
2022-12-12T14:09:48.300Z,100.00
2022-12-12T14:12:29.221Z,100.00
2022-12-12T14:15:06.074Z,100.00
2022-12-12T14:17:42.252Z,100.00
2022-12-12T14:20:37.253Z,100.00
2022-12-12T14:23:08.404Z,100.00
2022-12-12T14:28:32.574Z,100.00
2022-12-12T14:30:59.062Z,100.00
2022-12-12T14:33:49.085Z,100.00
2022-12-12T14:36:40.854Z,100.00
2022-12-12T14:39:10.321Z,100.00
2022-12-12T14:41:39.836Z,100.00
2022-12-12T14:44:36.616Z,100.00
2022-12-12T14:47:07.392Z,100.00
2022-12-12T14:49:33.899Z,100.00
2022-12-12T14:52:00.593Z,100.00
2022-12-12T14:54:27.425Z,100.00
2022-12-12T14:56:59.095Z,100.00
2022-12-12T14:59:29.797Z,100.00
2022-12-12T15:02:05.359Z,100.00
2022-12-12T15:04:35.200Z,100.00
2022-12-12T15:07:07.025Z,100.00
2022-12-12T15:09:38.831Z,100.00
2022-12-12T15:12:08.264Z,100.00
2022-12-12T15:14:34.801Z,100.00
2022-12-12T15:17:07.154Z,100.00
2022-12-12T15:19:41.264Z,100.00
2022-12-12T15:22:22.042Z,100.00
2022-12-12T15:24:48.783Z,100.00
2022-12-12T15:27:41.571Z,100.00
2022-12-12T15:30:43.611Z,100.00
2022-12-12T15:33:22.447Z,100.00
2022-12-12T15:36:01.822Z,100.00
2022-12-12T15:38:29.695Z,100.00
2022-12-12T15:40:59.730Z,100.00
2022-12-12T15:43:28.026Z,100.00
2022-12-12T15:45:55.012Z,100.00
2022-12-12T15:48:22.719Z,100.00
2022-12-12T15:50:59.286Z,100.00
2022-12-12T15:53:31.444Z,100.00
2022-12-12T15:56:04.827Z,100.00
2022-12-12T15:58:35.182Z,100.00
2022-12-12T16:01:03.354Z,100.00
2022-12-12T16:03:29.947Z,100.00
2022-12-12T16:06:14.026Z,100.00
2022-12-12T16:08:54.321Z,100.00
2022-12-12T16:11:38.844Z,100.00
2022-12-12T16:14:23.754Z,100.00
2022-12-12T16:16:53.243Z,100.00
2022-12-12T16:19:38.401Z,100.00
2022-12-12T16:22:13.620Z,100.00
2022-12-12T16:24:55.545Z,100.00
2022-12-12T16:27:22.537Z,100.00
2022-12-12T16:29:49.085Z,100.00
2022-12-12T16:32:19.005Z,100.00
2022-12-12T16:34:45.396Z,100.00
2022-12-12T16:37:14.852Z,100.00
2022-12-12T16:39:42.053Z,100.00
2022-12-12T16:42:16.544Z,100.00
2022-12-12T16:44:43.723Z,100.00
2022-12-12T16:47:14.521Z,100.00
2022-12-12T16:49:41.285Z,100.00
2022-12-12T16:52:09.769Z,100.00
2022-12-12T16:54:36.230Z,100.00
2022-12-12T16:57:02.749Z,100.00
2022-12-12T16:59:29.240Z,100.00
2022-12-12T17:01:55.767Z,100.00
2022-12-12T17:04:23.926Z,100.00
2022-12-12T17:06:50.904Z,100.00
2022-12-12T17:09:17.702Z,100.00
2022-12-12T17:11:44.238Z,100.00
2022-12-12T17:14:19.757Z,100.00
2022-12-12T17:16:46.335Z,100.00
2022-12-12T17:19:12.867Z,100.00
2022-12-12T17:21:39.390Z,100.00
2022-12-12T17:24:07.023Z,100.00
2022-12-12T17:26:35.146Z,100.00
2022-12-12T17:29:02.550Z,100.00
2022-12-12T17:31:29.167Z,100.00
2022-12-12T17:33:55.737Z,100.00
2022-12-12T17:36:22.291Z,100.00
2022-12-12T17:38:49.109Z,100.00
2022-12-12T17:41:15.754Z,100.00
2022-12-12T17:43:42.313Z,100.00
2022-12-12T17:46:15.021Z,100.00
2022-12-12T17:48:43.661Z,100.00
2022-12-12T17:51:12.665Z,100.00
2022-12-12T17:53:39.877Z,100.00
2022-12-12T17:56:14.995Z,100.00
2022-12-12T17:58:44.157Z,100.00
2022-12-12T18:01:12.517Z,100.00
2022-12-12T18:03:39.239Z,100.00
2022-12-12T18:06:06.114Z,100.00
2022-12-12T18:08:32.937Z,100.00
2022-12-12T18:10:59.571Z,100.00
2022-12-12T18:13:26.741Z,100.00
2022-12-12T18:15:55.495Z,100.00
2022-12-12T18:18:22.268Z,100.00
2022-12-12T18:20:49.098Z,100.00
2022-12-12T18:23:15.814Z,100.00
2022-12-12T18:25:42.389Z,100.00
2022-12-12T18:28:12.249Z,100.00
2022-12-12T18:30:40.231Z,100.00
2022-12-12T18:33:10.197Z,100.00
2022-12-12T18:35:36.873Z,100.00
2022-12-12T18:38:03.473Z,100.00
2022-12-12T18:40:29.939Z,100.00
2022-12-12T18:42:56.462Z,100.00
2022-12-12T18:45:24.062Z,100.00
2022-12-12T18:47:50.686Z,100.00
2022-12-12T18:50:17.250Z,100.00
2022-12-12T18:52:43.800Z,100.00
2022-12-12T18:55:10.340Z,100.00
2022-12-12T18:57:36.830Z,100.00
2022-12-12T19:00:06.878Z,100.00
2022-12-12T19:02:38.363Z,100.00
2022-12-12T19:05:05.966Z,100.00
2022-12-12T19:07:32.934Z,100.00
2022-12-12T19:09:59.455Z,100.00
2022-12-12T19:12:25.992Z,100.00
2022-12-12T19:15:15.638Z,100.00
2022-12-12T19:17:39.009Z,100.00
2022-12-12T19:20:06.244Z,100.00
2022-12-12T19:22:45.384Z,100.00
2022-12-12T19:25:12.484Z,100.00
2022-12-12T19:27:39.008Z,100.00
2022-12-12T19:30:06.247Z,100.00
2022-12-12T19:32:32.918Z,100.00
2022-12-12T19:34:59.741Z,100.00
2022-12-12T19:37:26.302Z,100.00
2022-12-12T19:39:52.970Z,100.00
2022-12-12T19:42:20.372Z,100.00
2022-12-12T19:44:46.936Z,100.00
2022-12-12T19:47:13.423Z,100.00
2022-12-12T19:49:39.957Z,100.00
2022-12-12T19:52:12.220Z,100.00
2022-12-12T19:54:40.544Z,100.00
2022-12-12T19:57:07.043Z,100.00
2022-12-12T19:59:33.615Z,100.00
2022-12-12T20:02:01.004Z,100.00
2022-12-12T20:04:30.137Z,100.00
2022-12-12T20:06:56.728Z,100.00
2022-12-12T20:09:28.525Z,100.00
2022-12-12T20:11:57.652Z,100.00
2022-12-12T20:14:27.548Z,100.00
2022-12-12T20:16:55.254Z,100.00
2022-12-12T20:19:23.126Z,100.00
2022-12-12T20:22:00.726Z,100.00
2022-12-12T20:24:28.890Z,100.00
2022-12-12T20:26:56.025Z,100.00
2022-12-12T20:29:23.506Z,100.00
2022-12-12T20:31:50.459Z,100.00
2022-12-12T20:34:19.195Z,100.00
2022-12-12T20:36:46.591Z,100.00
2022-12-12T20:39:22.306Z,100.00
2022-12-12T20:41:50.406Z,100.00
2022-12-12T20:44:18.102Z,100.00
2022-12-12T20:46:46.580Z,100.00
2022-12-12T20:49:16.985Z,100.00
2022-12-12T20:51:59.751Z,100.00
2022-12-12T20:54:28.775Z,100.00
2022-12-12T20:56:56.910Z,100.00
2022-12-12T20:59:24.899Z,100.00
2022-12-12T21:01:51.938Z,100.00
2022-12-12T21:04:18.646Z,100.00
2022-12-12T21:06:48.376Z,100.00
2022-12-12T21:09:22.593Z,100.00
2022-12-12T21:11:52.061Z,100.00
2022-12-12T21:14:18.607Z,100.00
2022-12-12T21:16:45.123Z,100.00
2022-12-12T21:19:13.643Z,100.00
2022-12-12T21:21:42.143Z,100.00
2022-12-12T21:24:09.950Z,100.00
2022-12-12T21:26:36.404Z,100.00
2022-12-12T21:29:04.886Z,100.00
2022-12-12T21:31:34.663Z,100.00
2022-12-12T21:34:01.459Z,100.00
2022-12-12T21:36:29.104Z,100.00
2022-12-12T21:38:57.221Z,100.00
2022-12-12T21:41:23.946Z,100.00
2022-12-12T21:43:51.359Z,100.00
2022-12-12T21:46:24.027Z,100.00
2022-12-12T21:49:09.911Z,100.00
2022-12-12T21:51:36.633Z,100.00
2022-12-12T21:54:04.877Z,100.00
2022-12-12T21:56:31.950Z,100.00
2022-12-12T21:58:59.344Z,100.00
2022-12-12T22:01:26.444Z,100.00
2022-12-12T22:03:53.929Z,100.00
2022-12-12T22:06:23.305Z,100.00
2022-12-12T22:08:50.769Z,100.00
2022-12-12T22:11:39.794Z,100.00
2022-12-12T22:14:06.726Z,100.00
2022-12-12T22:16:33.887Z,100.00
2022-12-12T22:19:05.821Z,100.00
2022-12-12T22:21:33.849Z,100.00
2022-12-12T22:24:01.065Z,100.00
2022-12-12T22:26:29.035Z,100.00
2022-12-12T22:28:58.863Z,100.00
2022-12-12T22:31:27.011Z,100.00
2022-12-12T22:33:56.209Z,100.00
2022-12-12T22:36:34.194Z,100.00
2022-12-12T22:39:01.207Z,100.00
2022-12-12T22:41:29.440Z,100.00
2022-12-12T22:44:01.263Z,100.00
2022-12-12T22:46:28.904Z,100.00
2022-12-12T22:48:59.097Z,100.00
2022-12-12T22:51:28.323Z,100.00
2022-12-12T22:53:56.116Z,100.00
2022-12-12T22:56:23.411Z,100.00
2022-12-12T22:58:49.987Z,100.00
2022-12-12T23:01:19.129Z,100.00
2022-12-12T23:03:46.593Z,100.00
2022-12-12T23:06:21.854Z,100.00
2022-12-12T23:08:54.143Z,100.00
2022-12-12T23:11:22.645Z,100.00
2022-12-12T23:13:49.393Z,100.00
2022-12-12T23:16:21.463Z,100.00
2022-12-12T23:18:48.758Z,100.00
2022-12-12T23:21:18.298Z,100.00
2022-12-12T23:23:46.047Z,100.00
2022-12-12T23:26:15.759Z,100.00
2022-12-12T23:28:43.015Z,100.00
2022-12-12T23:31:16.075Z,100.00
2022-12-12T23:33:42.662Z,100.00
2022-12-12T23:36:10.841Z,100.00
2022-12-12T23:38:37.988Z,100.00
2022-12-12T23:41:06.549Z,100.00
2022-12-12T23:43:33.175Z,100.00
2022-12-12T23:46:07.329Z,100.00
2022-12-12T23:48:34.971Z,100.00
2022-12-12T23:51:01.534Z,100.00
2022-12-12T23:53:31.698Z,100.00
2022-12-12T23:56:03.622Z,100.00
2022-12-12T23:58:30.337Z,100.00
